Terminal Aerodrome Forecast
Issued by NWS Topeka, KS

Home | Current Version | Previous Version | Graphics & Text | Print | Product List | Glossary On
Versions: 1 2 3 4 5 6 7 8 9 10 11 12 13 14 15 16 17
000
FTUS43 KTOP 261200 AAA
TAFTOP
TAF AMD
KTOP 261257Z 2613/2712 01010KT P6SM FEW015 SCT100
     FM261400 06010KT P6SM VCTS BKN070CB
     FM261700 10008KT P6SM SCT070
     FM270200 12003KT P6SM SCT080=

USA.gov is the U.S. government's official web portal to all federal, state and local government web resources and services.